Time;durP1;ratioP1;P1;durP2;ratioP2;P2;SDS_P1;SDS_P2;PMS_P1;PMS_P2;Temp;Humidity;BMP_temperature;BMP_pressure;BME280_temperature;BME280_humidity;BME280_pressure;Samples;Min_cycle;Max_cycle;Signal;HPM_P1;HPM_P2
2023/08/11 00:01:31;;;;;;;138.70;132.57;;;;;;;14.62;100.00;93470.09;5064939;28;20574;-77
2023/08/11 00:03:57;;;;;;;95.72;91.50;;;;;;;14.65;100.00;93474.03;5065725;28;20052;-77
2023/08/11 00:06:25;;;;;;;144.27;138.05;;;;;;;14.66;100.00;93462.66;5066115;28;20054;-77
2023/08/11 00:08:52;;;;;;;92.72;88.55;;;;;;;14.74;100.00;93471.88;5066291;28;20048;-77
2023/08/11 00:11:19;;;;;;;75.55;72.25;;;;;;;14.76;100.00;93473.25;5066869;28;20118;-77
2023/08/11 00:13:49;;;;;;;144.18;137.75;;;;;;;14.76;100.00;93470.66;5067135;28;20118;-79
2023/08/11 00:16:18;;;;;;;82.90;79.18;;;;;;;14.79;100.00;93474.59;5065665;28;20610;-78
2023/08/11 00:18:48;;;;;;;65.47;62.50;;;;;;;14.81;100.00;93478.53;5060896;28;20041;-78
2023/08/11 00:21:14;;;;;;;60.38;57.72;;;;;;;14.74;100.00;93461.53;5066419;28;20075;-78
2023/08/11 00:23:43;;;;;;;68.45;65.47;;;;;;;14.79;100.00;93465.03;5061177;28;20114;-78
2023/08/11 00:26:10;;;;;;;62.22;59.45;;;;;;;14.78;100.00;93470.44;5064798;28;20053;-78
2023/08/11 00:28:38;;;;;;;76.43;73.05;;;;;;;14.77;100.00;93467.06;5064758;28;20052;-78
2023/08/11 00:31:05;;;;;;;62.53;59.75;;;;;;;14.74;100.00;93474.47;5066500;28;20040;-77
2023/08/11 00:33:33;;;;;;;80.25;76.75;;;;;;;14.73;100.00;93467.72;5067206;28;20048;-78
2023/08/11 00:36:04;;;;;;;79.35;75.68;;;;;;;14.24;100.00;93440.38;5064856;28;20169;-78
2023/08/11 00:38:38;;;;;;;89.95;86.00;;;;;;;13.50;100.00;93362.38;5066372;28;20063;-78
2023/08/11 00:41:07;;;;;;;74.28;71.07;;;;;;;13.95;100.00;93472.06;5066326;28;20135;-78
2023/08/11 00:43:34;;;;;;;112.45;107.63;;;;;;;13.98;100.00;93474.19;5067158;28;20727;-78
2023/08/11 00:46:07;;;;;;;123.40;117.97;;;;;;;13.92;100.00;93466.56;5067601;28;20090;-78
2023/08/11 00:48:36;;;;;;;200.25;191.48;;;;;;;13.85;100.00;93471.84;5062524;28;20574;-78
2023/08/11 00:51:05;;;;;;;203.70;194.55;;;;;;;13.85;100.00;93484.75;5067137;28;20041;-78
2023/08/11 00:53:53;;;;;;;199.57;190.82;;;;;;;13.74;100.00;93476.75;5064593;28;21154;-78
2023/08/11 00:56:21;;;;;;;145.77;139.30;;;;;;;13.65;100.00;93475.50;5026318;28;20052;-78
2023/08/11 00:58:49;;;;;;;165.93;158.88;;;;;;;13.31;100.00;93478.53;5063997;28;20045;-79
2023/08/11 01:01:16;;;;;;;233.00;222.40;;;;;;;13.28;100.00;93473.03;5063245;28;20052;-78
2023/08/11 01:03:47;;;;;;;264.55;252.68;;;;;;;13.39;100.00;93472.28;5062529;28;20486;-79
2023/08/11 01:06:24;;;;;;;248.05;236.98;;;;;;;13.35;100.00;93461.63;5064759;28;20056;-79
2023/08/11 01:08:57;;;;;;;246.65;235.63;;;;;;;13.48;100.00;93478.72;5065483;28;20524;-78
2023/08/11 01:11:39;;;;;;;177.20;169.52;;;;;;;13.61;100.00;93480.31;5062270;28;20919;-78
2023/08/11 01:14:15;;;;;;;224.20;214.30;;;;;;;13.72;100.00;93481.38;5059425;28;20518;-78
2023/08/11 01:16:43;;;;;;;145.27;138.93;;;;;;;13.84;100.00;93476.19;5053932;28;20491;-78
2023/08/11 01:19:25;;;;;;;129.95;124.35;;;;;;;13.98;100.00;93484.53;5057226;28;20053;-78
2023/08/11 01:21:54;;;;;;;101.50;97.07;;;;;;;14.06;100.00;93485.22;5062961;28;20121;-79
2023/08/11 01:24:22;;;;;;;116.90;111.85;;;;;;;14.09;100.00;93479.59;5061416;28;20106;-79
2023/08/11 01:26:51;;;;;;;135.48;129.48;;;;;;;14.14;100.00;93484.88;5065711;28;20102;-78
2023/08/11 01:29:19;;;;;;;130.85;124.78;;;;;;;14.19;100.00;93486.78;5065695;28;20418;-78
2023/08/11 01:31:46;;;;;;;93.32;89.35;;;;;;;14.11;100.00;93473.19;5060076;28;20128;-78
2023/08/11 01:34:12;;;;;;;152.52;145.90;;;;;;;14.16;100.00;93478.47;5059514;28;20048;-77
2023/08/11 01:36:42;;;;;;;84.88;81.10;;;;;;;14.06;100.00;93461.97;5060590;28;20460;-77
2023/08/11 01:39:10;;;;;;;110.68;105.90;;;;;;;14.15;100.00;93478.69;5060804;28;20049;-77
2023/08/11 01:41:39;;;;;;;164.80;157.70;;;;;;;14.13;100.00;93484.06;5063833;28;20090;-77
2023/08/11 01:44:06;;;;;;;102.78;98.25;;;;;;;14.11;100.00;93482.72;5064635;28;20102;-77
2023/08/11 01:46:41;;;;;;;117.80;112.32;;;;;;;14.12;100.00;93497.22;5062390;28;20119;-77
2023/08/11 01:49:10;;;;;;;81.18;77.57;;;;;;;14.07;100.00;93490.13;5054999;28;20110;-76
2023/08/11 01:51:37;;;;;;;75.45;72.05;;;;;;;14.02;100.00;93492.59;5060161;28;20529;-76
2023/08/11 01:54:04;;;;;;;91.00;87.05;;;;;;;13.92;100.00;93488.00;5056943;28;20498;-76
2023/08/11 01:56:31;;;;;;;86.03;82.13;;;;;;;13.92;100.00;93497.56;5056537;28;20080;-76
2023/08/11 01:59:01;;;;;;;122.55;117.03;;;;;;;13.79;100.00;93477.88;5058686;28;20114;-77
2023/08/11 02:01:27;;;;;;;96.10;91.60;;;;;;;13.68;100.00;93507.81;5055193;28;20498;-79
2023/08/11 02:04:00;;;;;;;99.70;95.35;;;;;;;13.55;100.00;93501.84;5059065;28;20183;-77
2023/08/11 02:06:27;;;;;;;109.78;105.00;;;;;;;13.29;100.00;93501.16;5060992;28;20102;-77
2023/08/11 02:08:53;;;;;;;114.88;109.80;;;;;;;13.07;100.00;93496.50;5065244;28;20125;-78
2023/08/11 02:11:20;;;;;;;203.95;194.75;;;;;;;13.18;100.00;93501.91;5062316;28;20086;-78
2023/08/11 02:13:47;;;;;;;196.65;187.95;;;;;;;13.20;100.00;93503.28;5060062;28;20044;-78
2023/08/11 02:16:27;;;;;;;;;;;;;;;;;;;;;
2023/08/11 02:18:54;;;;;;;212.60;203.38;;;;;;;13.28;100.00;93511.72;5058495;28;20087;-78
2023/08/11 02:21:22;;;;;;;218.52;208.90;;;;;;;13.32;100.00;93505.91;5065141;28;20098;-77
2023/08/11 02:23:49;;;;;;;161.60;154.50;;;;;;;13.36;100.00;93508.84;5063861;28;20055;-77
2023/08/11 02:26:16;;;;;;;195.55;186.95;;;;;;;13.36;100.00;93501.09;5057395;28;20049;-79
2023/08/11 02:28:43;;;;;;;192.45;183.93;;;;;;;13.38;100.00;93500.88;5060247;28;20045;-78
2023/08/11 02:31:10;;;;;;;144.75;138.55;;;;;;;13.31;100.00;93490.63;5064574;28;20079;-79
2023/08/11 02:33:40;;;;;;;130.32;124.63;;;;;;;13.32;100.00;93498.16;5061158;28;20064;-78
2023/08/11 02:36:06;;;;;;;159.80;152.77;;;;;;;13.32;100.00;93493.00;5061144;28;20576;-77
2023/08/11 02:38:33;;;;;;;144.75;138.35;;;;;;;13.32;100.00;93494.78;5056650;28;20094;-77
2023/08/11 02:41:00;;;;;;;143.77;137.38;;;;;;;13.33;100.00;93493.81;5064142;28;20052;-77
2023/08/11 02:43:27;;;;;;;176.57;168.88;;;;;;;13.23;100.00;93481.41;5061009;28;20395;-78
2023/08/11 02:45:54;;;;;;;128.52;122.88;;;;;;;13.24;100.00;93498.47;5059782;28;20541;-76
2023/08/11 02:48:21;;;;;;;197.43;188.63;;;;;;;13.19;100.00;93493.19;5065523;28;20106;-76
2023/08/11 02:50:49;;;;;;;203.23;194.25;;;;;;;13.16;100.00;93491.84;5064918;28;20076;-77
2023/08/11 02:53:15;;;;;;;210.40;201.05;;;;;;;13.10;100.00;93493.47;5061631;28;20462;-77
2023/08/11 02:55:43;;;;;;;181.52;173.50;;;;;;;13.06;100.00;93491.56;5062514;28;20040;-79
2023/08/11 02:58:10;;;;;;;174.57;166.90;;;;;;;12.81;100.00;93461.50;5063435;28;20091;-79
2023/08/11 03:00:37;;;;;;;209.82;200.50;;;;;;;12.98;100.00;93487.50;5067581;28;20045;-78
2023/08/11 03:03:04;;;;;;;216.35;206.95;;;;;;;12.89;100.00;93491.34;5062113;28;20533;-77
2023/08/11 03:05:31;;;;;;;200.20;191.38;;;;;;;12.91;100.00;93491.94;5068432;28;20128;-76
2023/08/11 03:07:59;;;;;;;218.43;208.68;;;;;;;12.89;100.00;93489.59;5068270;28;20056;-77
2023/08/11 03:10:26;;;;;;;203.77;194.52;;;;;;;12.89;100.00;93493.94;5067101;28;20134;-77
2023/08/11 03:12:53;;;;;;;147.60;140.80;;;;;;;12.89;100.00;93497.31;5057146;28;20187;-77
2023/08/11 03:15:20;;;;;;;184.57;176.25;;;;;;;12.63;100.00;93465.69;5063538;28;20049;-76
2023/08/11 03:17:47;;;;;;;191.60;183.25;;;;;;;12.84;100.00;93502.34;5058345;28;20048;-77
2023/08/11 03:20:15;;;;;;;167.50;160.00;;;;;;;12.80;100.00;93486.50;5064842;28;20131;-77
2023/08/11 03:22:42;;;;;;;165.10;157.73;;;;;;;12.66;100.00;93475.56;5062890;28;20157;-76
2023/08/11 03:25:11;;;;;;;220.10;210.23;;;;;;;12.66;100.00;93472.19;5067856;28;20518;-76
2023/08/11 03:27:41;;;;;;;229.02;218.95;;;;;;;12.71;100.00;93482.66;5062833;28;20045;-76
2023/08/11 03:30:10;;;;;;;212.68;203.10;;;;;;;12.67;100.00;93484.88;5062123;28;20053;-77
2023/08/11 03:32:51;;;;;;;230.52;220.00;;;;;;;12.70;100.00;93491.38;5066850;28;20044;-78
2023/08/11 03:35:18;;;;;;;225.05;214.95;;;;;;;12.64;100.00;93480.13;5065000;28;20047;-78
2023/08/11 03:37:45;;;;;;;225.07;214.95;;;;;;;12.64;100.00;93495.59;5058503;28;20423;-77
2023/08/11 03:40:14;;;;;;;227.48;217.27;;;;;;;12.60;100.00;93485.94;5064132;28;20048;-77
2023/08/11 03:42:41;;;;;;;215.82;205.98;;;;;;;12.59;100.00;93486.94;5063908;28;20114;-78
2023/08/11 03:45:11;;;;;;;204.15;195.02;;;;;;;12.39;100.00;93457.81;5065303;28;21204;-78
2023/08/11 03:47:38;;;;;;;195.52;186.57;;;;;;;12.61;100.00;93484.94;5061411;28;20502;-78
2023/08/11 03:50:07;;;;;;;213.90;204.07;;;;;;;12.60;100.00;93485.94;5066034;28;20498;-78
2023/08/11 03:52:40;;;;;;;138.18;132.18;;;;;;;12.60;100.00;93488.53;5064107;28;20090;-77
2023/08/11 03:55:09;;;;;;;195.25;186.68;;;;;;;12.61;100.00;93485.72;5066368;28;20552;-77
2023/08/11 03:57:37;;;;;;;221.68;211.80;;;;;;;12.60;100.00;93483.38;5063001;28;20131;-78
2023/08/11 04:00:08;;;;;;;230.35;219.85;;;;;;;12.60;100.00;93485.94;5065026;28;20131;-77
2023/08/11 04:02:35;;;;;;;234.15;223.68;;;;;;;12.51;100.00;93475.13;5060745;28;20117;-76
2023/08/11 04:05:02;;;;;;;192.80;184.32;;;;;;;12.62;100.00;93492.47;5067133;28;20041;-76
2023/08/11 04:07:29;;;;;;;228.32;218.23;;;;;;;12.62;100.00;93487.31;5064628;28;20505;-76
2023/08/11 04:09:58;;;;;;;208.38;198.63;;;;;;;12.57;100.00;93479.44;5063242;28;20060;-76
2023/08/11 04:12:25;;;;;;;221.35;211.55;;;;;;;12.59;100.00;93484.38;5061370;28;20129;-76
2023/08/11 04:14:55;;;;;;;144.38;138.00;;;;;;;12.58;100.00;93488.72;5064685;28;20082;-76
2023/08/11 04:17:22;;;;;;;189.23;180.63;;;;;;;12.52;100.00;93480.09;5062978;28;20497;-78
2023/08/11 04:19:49;;;;;;;210.73;201.27;;;;;;;12.54;100.00;93482.41;5065094;28;20098;-77
2023/08/11 04:22:16;;;;;;;217.82;208.10;;;;;;;12.49;100.00;93475.34;5062041;28;20171;-77
2023/08/11 04:24:42;;;;;;;222.30;212.40;;;;;;;12.66;100.00;93492.81;5063120;28;20048;-77
2023/08/11 04:27:09;;;;;;;220.95;210.77;;;;;;;12.67;100.00;93491.81;5060819;28;20588;-77
2023/08/11 04:29:36;;;;;;;210.68;201.13;;;;;;;12.73;100.00;93496.09;5060650;28;20102;-77
2023/08/11 04:32:05;;;;;;;208.52;199.18;;;;;;;12.75;100.00;93488.16;5061157;28;20083;-77
2023/08/11 04:34:32;;;;;;;170.25;162.75;;;;;;;12.81;100.00;93495.81;5062663;28;20137;-76
2023/08/11 04:36:59;;;;;;;218.98;208.90;;;;;;;12.90;100.00;93500.66;5060370;28;20045;-76
2023/08/11 04:39:26;;;;;;;185.23;176.77;;;;;;;12.96;100.00;93503.19;5060904;28;20053;-76
2023/08/11 04:42:00;;;;;;;218.02;208.25;;;;;;;12.98;100.00;93499.59;5060636;28;20090;-76
2023/08/11 04:44:27;;;;;;;210.20;200.52;;;;;;;13.04;100.00;93494.34;5061141;28;20173;-76
2023/08/11 04:47:01;;;;;;;142.98;136.65;;;;;;;13.13;100.00;93497.41;5063627;28;20110;-76
2023/08/11 04:49:29;;;;;;;161.55;154.55;;;;;;;13.12;100.00;93480.38;5064531;28;20569;-76
2023/08/11 04:51:56;;;;;;;122.00;116.60;;;;;;;13.30;100.00;93501.97;5064764;28;21037;-76
2023/08/11 04:54:25;;;;;;;156.23;149.07;;;;;;;13.33;100.00;93501.53;5065008;28;20502;-76
2023/08/11 04:56:52;;;;;;;137.23;130.98;;;;;;;13.42;100.00;93504.59;5063156;28;20098;-76
2023/08/11 04:59:19;;;;;;;207.23;197.98;;;;;;;13.47;100.00;93504.75;5064029;28;20502;-76
2023/08/11 05:01:46;;;;;;;205.80;196.50;;;;;;;13.55;100.00;93501.84;5065890;28;20056;-77
2023/08/11 05:04:12;;;;;;;197.73;188.93;;;;;;;13.64;100.00;93502.31;5064068;28;20053;-77
2023/08/11 05:06:40;;;;;;;129.18;123.43;;;;;;;13.70;100.00;93503.25;5061606;28;20518;-77
2023/08/11 05:09:07;;;;;;;196.85;188.20;;;;;;;13.70;100.00;93498.09;5066055;28;20049;-76
2023/08/11 05:11:34;;;;;;;117.30;112.13;;;;;;;13.82;100.00;93504.03;5062877;28;20052;-76
2023/08/11 05:14:00;;;;;;;120.72;115.30;;;;;;;13.89;100.00;93515.06;5065587;28;20045;-77
2023/08/11 05:16:27;;;;;;;84.50;80.75;;;;;;;14.00;100.00;93515.28;5066210;28;20457;-76
2023/08/11 05:18:54;;;;;;;97.28;93.03;;;;;;;14.04;100.00;93521.59;5063893;28;20040;-76
2023/08/11 05:21:21;;;;;;;114.85;109.57;;;;;;;14.20;100.00;93522.72;5064666;28;20041;-75
2023/08/11 05:23:49;;;;;;;77.63;74.13;;;;;;;14.23;100.00;93524.06;5062558;28;20082;-75
2023/08/11 05:26:15;;;;;;;88.00;83.93;;;;;;;14.28;100.00;93524.97;5065289;28;20048;-74
2023/08/11 05:28:42;;;;;;;76.25;72.80;;;;;;;14.34;100.00;93531.03;5063057;28;20495;-74
2023/08/11 05:31:11;;;;;;;73.50;70.25;;;;;;;14.47;100.00;93531.81;5061514;28;20094;-75
2023/08/11 05:33:38;;;;;;;78.10;74.60;;;;;;;14.46;100.00;93518.13;5065057;28;20052;-74
2023/08/11 05:36:05;;;;;;;77.30;73.78;;;;;;;14.56;100.00;93525.31;5060249;28;20249;-76
2023/08/11 05:38:33;;;;;;;86.60;82.65;;;;;;;14.64;100.00;93532.72;5062534;28;20094;-77
2023/08/11 05:41:01;;;;;;;75.40;71.93;;;;;;;14.71;100.00;93530.00;5065504;28;20090;-76
2023/08/11 05:43:28;;;;;;;176.10;168.10;;;;;;;14.87;100.00;93533.72;5065810;28;20084;-76
2023/08/11 05:45:55;;;;;;;86.05;82.18;;;;;;;14.89;100.00;93529.09;5063150;28;20457;-76
2023/08/11 05:48:21;;;;;;;66.50;63.47;;;;;;;14.99;100.00;93544.03;5062501;28;20093;-76
2023/08/11 05:50:50;;;;;;;85.07;81.30;;;;;;;15.05;100.00;93545.69;5065893;28;20499;-76
2023/08/11 05:53:16;;;;;;;78.15;74.50;;;;;;;15.09;100.00;93528.72;5060800;28;20461;-75
2023/08/11 05:55:43;;;;;;;62.58;59.58;;;;;;;15.32;100.00;93547.00;5065462;28;20090;-76
2023/08/11 05:58:11;;;;;;;59.00;56.40;;;;;;;15.37;100.00;93534.16;5062287;28;20045;-74
2023/08/11 06:00:38;;;;;;;63.38;60.33;;;;;;;15.44;100.00;93537.38;5064086;28;20098;-77
2023/08/11 06:03:05;;;;;;;50.38;47.90;;;;;;;15.50;100.00;93539.03;5061879;28;20045;-77
2023/08/11 06:05:31;;;;;;;52.42;49.90;;;;;;;15.56;100.00;93542.50;5064682;28;20049;-77
2023/08/11 06:07:58;;;;;;;62.05;59.05;;;;;;;15.66;100.00;93544.50;5062334;28;20498;-78
2023/08/11 06:10:26;;;;;;;47.22;44.95;;;;;;;15.89;100.00;93545.38;5065357;28;20114;-77
2023/08/11 06:12:52;;;;;;;42.05;40.08;;;;;;;16.03;100.00;93549.25;5057372;28;20418;-77
2023/08/11 06:15:21;;;;;;;44.75;42.55;;;;;;;16.22;100.00;93543.84;5065552;28;20052;-77
2023/08/11 06:17:49;;;;;;;37.67;35.63;;;;;;;16.37;100.00;93543.28;5060631;28;20044;-78
2023/08/11 06:20:17;;;;;;;40.33;38.30;;;;;;;16.34;100.00;93519.66;5064270;28;20049;-77
2023/08/11 06:22:44;;;;;;;28.40;26.95;;;;;;;16.77;100.00;93546.69;5060704;28;20056;-77
2023/08/11 06:25:11;;;;;;;32.15;30.55;;;;;;;16.67;100.00;93529.16;5064110;28;20125;-76
2023/08/11 06:27:38;;;;;;;29.30;27.80;;;;;;;16.85;100.00;93552.50;5063682;28;20760;-76
2023/08/11 06:30:07;;;;;;;29.05;27.65;;;;;;;17.11;100.00;93548.41;5063363;28;20190;-77
2023/08/11 06:32:35;;;;;;;33.13;31.42;;;;;;;17.31;100.00;93539.31;5069153;28;20095;-77
2023/08/11 06:35:04;;;;;;;30.10;28.52;;;;;;;17.35;100.00;93515.19;5064545;28;20075;-77
2023/08/11 06:37:30;;;;;;;27.38;25.90;;;;;;;17.54;100.00;93556.41;5069283;28;20471;-77
2023/08/11 06:39:58;;;;;;;28.98;27.48;;;;;;;17.77;100.00;93557.16;5067167;28;20044;-77
2023/08/11 06:42:54;;;;;;;29.58;27.63;;;;;;;17.83;100.00;93550.97;5067168;28;20532;-77
2023/08/11 06:45:20;;;;;;;23.13;21.90;;;;;;;18.15;100.00;93558.03;5026635;28;20052;-77
2023/08/11 06:47:48;;;;;;;18.40;17.27;;;;;;;18.41;100.00;93557.44;5067907;28;20055;-77
2023/08/11 06:50:14;;;;;;;25.05;23.58;;;;;;;18.41;100.00;93553.03;5068407;28;20064;-77
2023/08/11 06:52:41;;;;;;;22.90;21.40;;;;;;;18.76;100.00;93561.31;5063450;28;20048;-77
2023/08/11 06:55:08;;;;;;;17.45;16.25;;;;;;;18.90;100.00;93559.03;5067349;28;20688;-78
2023/08/11 06:57:36;;;;;;;16.58;15.48;;;;;;;18.92;100.00;93562.16;5068423;28;20105;-78
2023/08/11 07:00:05;;;;;;;8.98;8.27;;;;;;;19.26;100.00;93557.63;5067798;28;20044;-78
2023/08/11 07:02:32;;;;;;;7.82;7.32;;;;;;;19.35;100.00;93563.94;5066179;28;20844;-78
2023/08/11 07:05:02;;;;;;;7.70;7.13;;;;;;;19.34;100.00;93554.53;5067694;28;20094;-78
2023/08/11 07:07:28;;;;;;;8.27;7.65;;;;;;;19.49;100.00;93572.81;5065732;28;20036;-76
2023/08/11 07:09:55;;;;;;;7.90;7.07;;;;;;;19.60;100.00;93565.03;5064363;28;20947;-77
2023/08/11 07:12:22;;;;;;;9.02;8.32;;;;;;;19.69;100.00;93566.09;5063614;28;20055;-77
2023/08/11 07:14:50;;;;;;;7.65;7.05;;;;;;;19.82;100.00;93572.66;5061217;28;20424;-77
2023/08/11 07:17:16;;;;;;;7.35;6.82;;;;;;;19.83;100.00;93561.19;5064816;28;20044;-80
2023/08/11 07:19:43;;;;;;;6.85;6.35;;;;;;;19.92;99.07;93566.66;5065517;28;20094;-77
2023/08/11 07:22:14;;;;;;;5.95;5.45;;;;;;;20.05;100.00;93565.41;5065850;28;20445;-78
2023/08/11 07:24:41;;;;;;;5.60;5.20;;;;;;;20.00;92.86;93565.41;5067449;28;20588;-77
2023/08/11 07:27:08;;;;;;;4.38;3.97;;;;;;;19.98;85.20;93570.88;5065173;28;20049;-78
2023/08/11 07:29:34;;;;;;;5.35;4.90;;;;;;;19.93;87.86;93575.25;5066163;28;20084;-77
2023/08/11 07:32:01;;;;;;;5.75;5.32;;;;;;;20.12;92.19;93571.13;5066556;28;20084;-76
2023/08/11 07:34:29;;;;;;;4.50;4.18;;;;;;;19.87;80.86;93572.63;5065688;28;20445;-78
2023/08/11 07:36:56;;;;;;;4.22;3.88;;;;;;;19.98;80.17;93581.28;5064697;28;20090;-77
2023/08/11 07:39:26;;;;;;;4.03;3.72;;;;;;;19.96;80.20;93583.38;5066739;28;20101;-77
2023/08/11 07:41:52;;;;;;;4.40;4.10;;;;;;;19.79;78.82;93580.97;5065889;28;20044;-79
2023/08/11 07:44:21;;;;;;;4.68;4.32;;;;;;;20.09;80.23;93586.53;5065337;28;20044;-76
2023/08/11 07:46:48;;;;;;;4.55;4.15;;;;;;;20.14;78.74;93587.28;5066874;28;20102;-77
2023/08/11 07:49:15;;;;;;;3.88;3.58;;;;;;;19.97;80.26;93584.94;5063840;28;20048;-77
2023/08/11 07:51:41;;;;;;;4.25;3.85;;;;;;;19.73;80.71;93587.97;5062124;28;20097;-76
2023/08/11 07:54:08;;;;;;;4.80;4.40;;;;;;;19.76;84.77;93586.69;5061823;28;20048;-76
2023/08/11 07:56:37;;;;;;;4.25;3.95;;;;;;;19.65;81.78;93585.91;5060358;28;20071;-76
2023/08/11 07:59:04;;;;;;;4.97;4.68;;;;;;;19.70;82.63;93598.13;5061744;28;20555;-77
2023/08/11 08:01:31;;;;;;;4.45;4.15;;;;;;;19.95;81.83;93584.38;5062690;28;20048;-76
2023/08/11 08:03:58;;;;;;;4.30;4.00;;;;;;;20.15;80.57;93588.84;5060996;28;20052;-76
2023/08/11 08:06:25;;;;;;;4.95;4.55;;;;;;;20.55;81.55;93593.56;5062802;28;20095;-76
2023/08/11 08:08:51;;;;;;;3.88;3.58;;;;;;;20.50;79.67;93590.97;5062357;28;20447;-76
2023/08/11 08:11:19;;;;;;;3.90;3.60;;;;;;;20.47;80.39;93591.47;5062217;28;20526;-76
2023/08/11 08:13:47;;;;;;;4.03;3.45;;;;;;;20.43;79.07;93602.41;5064216;28;20040;-77
2023/08/11 08:16:16;;;;;;;5.00;3.63;;;;;;;20.41;78.06;93586.25;5064495;28;20102;-76
2023/08/11 08:18:42;;;;;;;4.28;3.97;;;;;;;20.39;79.73;93598.78;5061723;28;20086;-76
2023/08/11 08:21:11;;;;;;;4.10;3.80;;;;;;;20.29;78.71;93604.00;5060528;28;20057;-78
2023/08/11 08:23:40;;;;;;;4.15;3.85;;;;;;;20.32;79.18;93594.88;5065814;28;20071;-77
2023/08/11 08:26:07;;;;;;;4.50;4.10;;;;;;;20.50;78.90;93598.78;5067359;28;20048;-77
2023/08/11 08:28:34;;;;;;;3.63;3.25;;;;;;;19.88;78.86;93573.41;5063713;28;20080;-78
2023/08/11 08:31:02;;;;;;;3.72;3.42;;;;;;;20.40;78.93;93596.94;5064015;28;20056;-76
2023/08/11 08:33:29;;;;;;;3.90;3.60;;;;;;;20.46;76.70;93590.69;5066453;28;20044;-76
2023/08/11 08:35:56;;;;;;;3.53;3.22;;;;;;;20.59;74.37;93602.41;5063784;28;20052;-76
2023/08/11 08:38:22;;;;;;;3.40;3.10;;;;;;;20.77;75.34;93597.69;5062666;28;20045;-76
2023/08/11 08:40:49;;;;;;;4.07;3.72;;;;;;;21.15;74.68;93592.94;5066233;28;20048;-76
2023/08/11 08:43:16;;;;;;;4.95;3.05;;;;;;;21.24;76.41;93593.16;5060762;28;20115;-77
2023/08/11 08:45:45;;;;;;;4.97;3.70;;;;;;;21.41;73.45;93599.88;5064646;28;20581;-76
2023/08/11 08:48:20;;;;;;;3.13;2.88;;;;;;;21.38;71.63;93567.25;5063287;28;20563;-77
2023/08/11 08:50:47;;;;;;;2.97;2.67;;;;;;;21.71;72.14;93595.63;5061469;28;20055;-76
2023/08/11 08:53:14;;;;;;;3.75;2.80;;;;;;;21.85;70.16;93588.72;5065877;28;20110;-76
2023/08/11 08:55:42;;;;;;;3.22;2.80;;;;;;;22.00;69.86;93589.69;5063384;28;20048;-77
2023/08/11 08:58:11;;;;;;;3.08;2.78;;;;;;;21.95;67.22;93572.22;5062744;28;20406;-76
2023/08/11 09:00:38;;;;;;;2.58;2.38;;;;;;;22.20;66.46;93591.38;5060448;28;20048;-76
2023/08/11 09:03:06;;;;;;;5.22;2.97;;;;;;;21.77;66.94;93586.69;5061009;28;20044;-76
2023/08/11 09:05:35;;;;;;;3.40;3.10;;;;;;;21.69;69.34;93579.38;5060677;28;20062;-77
2023/08/11 09:08:02;;;;;;;2.60;2.40;;;;;;;21.74;70.29;93592.44;5059284;28;20056;-76
2023/08/11 09:10:30;;;;;;;3.60;2.55;;;;;;;21.61;71.30;93571.06;5060308;28;20059;-76
2023/08/11 09:12:56;;;;;;;2.95;2.75;;;;;;;21.81;69.43;93585.09;5060033;28;20571;-76
2023/08/11 09:15:23;;;;;;;4.25;2.92;;;;;;;21.64;66.98;93574.97;5057108;28;20446;-77
2023/08/11 09:17:51;;;;;;;3.40;3.10;;;;;;;21.91;67.33;93563.34;5061763;28;20044;-76
2023/08/11 09:20:19;;;;;;;2.58;2.10;;;;;;;21.61;67.14;93565.81;5060752;28;20052;-76
2023/08/11 09:22:47;;;;;;;2.92;2.70;;;;;;;21.11;70.59;93571.03;5063878;28;20052;-77
2023/08/11 09:25:15;;;;;;;5.13;2.92;;;;;;;21.27;72.60;93527.31;5061741;28;20052;-77
2023/08/11 09:27:42;;;;;;;3.95;2.90;;;;;;;21.53;67.03;93550.72;5063016;28;20087;-77
2023/08/11 09:30:10;;;;;;;3.35;3.05;;;;;;;22.02;68.79;93553.56;5063850;28;20140;-76
2023/08/11 09:32:38;;;;;;;4.32;2.78;;;;;;;22.11;69.52;93575.47;5063486;28;20048;-79
2023/08/11 09:35:08;;;;;;;3.03;2.55;;;;;;;21.81;67.70;93576.47;5064420;28;20140;-76
2023/08/11 09:37:35;;;;;;;2.65;2.40;;;;;;;21.91;66.59;93586.06;5064592;28;20057;-76
2023/08/11 09:40:04;;;;;;;2.72;2.22;;;;;;;22.37;67.47;93579.75;5064299;28;20079;-76
2023/08/11 09:42:32;;;;;;;2.90;2.58;;;;;;;22.43;68.49;93573.41;5062018;28;20527;-76
2023/08/11 09:44:59;;;;;;;2.70;2.50;;;;;;;22.15;65.27;93578.31;5062274;28;20067;-76
2023/08/11 09:47:28;;;;;;;5.50;2.72;;;;;;;21.48;65.57;93494.03;5061545;28;20048;-76
2023/08/11 09:49:55;;;;;;;2.58;2.30;;;;;;;21.69;68.94;93525.25;5062399;28;20106;-76
2023/08/11 09:52:22;;;;;;;3.25;3.00;;;;;;;22.01;66.66;93583.41;5060867;28;20068;-77
2023/08/11 09:54:50;;;;;;;4.28;2.88;;;;;;;22.28;65.63;93559.38;5059547;28;20051;-76
2023/08/11 09:57:22;;;;;;;2.95;2.15;;;;;;;22.66;62.50;93577.16;5058510;28;20474;-76
2023/08/11 09:59:52;;;;;;;3.40;2.90;;;;;;;22.99;64.48;93576.56;5059061;28;20044;-76
2023/08/11 10:02:23;;;;;;;4.68;1.98;;;;;;;22.81;65.25;93567.56;5058599;28;20048;-76
2023/08/11 10:04:57;;;;;;;3.13;2.13;;;;;;;22.90;66.85;93573.78;5062736;28;20040;-77
2023/08/11 10:07:30;;;;;;;2.65;2.33;;;;;;;22.60;65.75;93575.66;5062836;28;20087;-76
2023/08/11 10:10:00;;;;;;;2.75;2.00;;;;;;;22.66;63.89;93574.53;5064582;28;20051;-77
2023/08/11 10:12:29;;;;;;;3.40;2.63;;;;;;;23.17;63.39;93569.81;5063951;28;20684;-76
2023/08/11 10:14:56;;;;;;;2.90;2.20;;;;;;;22.58;63.55;93569.88;5065208;28;20105;-77
2023/08/11 10:17:24;;;;;;;4.00;2.25;;;;;;;22.92;65.30;93552.56;5069725;28;20624;-76
2023/08/11 10:19:51;;;;;;;3.72;2.50;;;;;;;22.87;61.81;93561.22;5066792;28;20095;-78
2023/08/11 10:22:19;;;;;;;3.40;2.60;;;;;;;23.11;62.98;93557.06;5067318;28;20507;-77
2023/08/11 10:24:46;;;;;;;3.17;2.55;;;;;;;22.88;61.69;93557.56;5066626;28;20531;-78
2023/08/11 10:27:14;;;;;;;2.67;2.40;;;;;;;22.81;60.95;93555.28;5067168;28;20052;-78
2023/08/11 10:29:46;;;;;;;4.22;2.17;;;;;;;23.25;62.71;93547.47;5065222;28;20116;-77
2023/08/11 10:32:13;;;;;;;3.17;2.63;;;;;;;23.31;59.87;93546.38;5066399;28;20106;-77
2023/08/11 10:34:40;;;;;;;5.03;2.35;;;;;;;23.76;62.68;93540.78;5063857;28;20044;-77
2023/08/11 10:37:08;;;;;;;3.42;2.15;;;;;;;23.88;63.08;93526.44;5068362;28;20417;-77
2023/08/11 10:39:36;;;;;;;3.00;2.40;;;;;;;23.70;62.39;93543.78;5067303;28;20520;-76
2023/08/11 10:42:04;;;;;;;2.47;1.80;;;;;;;23.16;62.57;93528.97;5065266;28;20498;-77
2023/08/11 10:44:30;;;;;;;2.63;2.00;;;;;;;23.14;60.87;93540.78;5065572;28;20448;-77
2023/08/11 10:47:03;;;;;;;3.05;1.98;;;;;;;23.80;62.40;93532.34;5061556;28;20071;-77
2023/08/11 10:49:34;;;;;;;3.13;2.28;;;;;;;23.16;61.04;93523.72;5062717;28;20044;-79
2023/08/11 10:52:02;;;;;;;2.70;2.17;;;;;;;23.30;61.50;93536.91;5062464;28;20137;-77
2023/08/11 10:54:29;;;;;;;3.00;2.60;;;;;;;23.80;63.85;93529.72;5063418;28;20048;-77
2023/08/11 10:57:00;;;;;;;2.25;2.05;;;;;;;23.89;61.22;93528.78;5061646;28;20052;-77
2023/08/11 10:59:29;;;;;;;3.47;2.50;;;;;;;24.10;58.64;93520.63;5062998;28;20059;-77
2023/08/11 11:01:59;;;;;;;2.42;1.83;;;;;;;24.28;57.05;93534.00;5062666;28;20197;-78
2023/08/11 11:04:30;;;;;;;2.30;1.85;;;;;;;24.17;56.15;93535.22;5062027;28;20075;-77
2023/08/11 11:06:58;;;;;;;2.38;1.90;;;;;;;23.97;58.29;93510.84;5062999;28;20051;-76
2023/08/11 11:09:27;;;;;;;3.67;2.13;;;;;;;23.75;63.67;93539.22;5062254;28;20055;-77
2023/08/11 11:11:54;;;;;;;3.72;2.00;;;;;;;22.92;64.75;93536.84;5062841;28;20068;-78
2023/08/11 11:14:22;;;;;;;2.83;2.20;;;;;;;23.27;64.08;93534.84;5062126;28;20071;-78
2023/08/11 11:16:48;;;;;;;3.10;2.70;;;;;;;23.68;65.92;93536.19;5062234;28;20059;-77
2023/08/11 11:19:15;;;;;;;4.20;2.35;;;;;;;24.10;64.38;93528.50;5060069;28;20063;-78